createdAt,value
2022-07-26T04:31:42.386Z,94901.00
2022-07-26T04:36:44.377Z,94902.00
2022-07-26T04:41:46.307Z,94896.00
2022-07-26T04:46:48.285Z,94892.00
2022-07-26T04:51:50.236Z,94894.00
2022-07-26T04:56:52.440Z,94913.00
2022-07-26T05:01:54.536Z,94894.00
2022-07-26T05:07:02.360Z,94906.00
2022-07-26T05:12:04.834Z,94899.00
2022-07-26T05:17:08.814Z,94901.00
2022-07-26T05:22:12.704Z,94921.00
2022-07-26T05:27:14.688Z,94914.00
2022-07-26T05:32:16.814Z,94907.00
2022-07-26T05:37:18.783Z,94920.00
2022-07-26T05:42:20.766Z,94910.00
2022-07-26T05:47:22.850Z,94901.00
2022-07-26T05:52:24.829Z,94909.00
2022-07-26T05:57:26.820Z,94898.00
2022-07-26T06:02:28.877Z,94909.00
2022-07-26T06:07:30.952Z,94888.00
2022-07-26T06:12:33.089Z,94915.00
2022-07-26T06:17:40.664Z,94905.00
2022-07-26T06:22:42.832Z,94898.00
2022-07-26T06:27:44.898Z,94897.00
2022-07-26T06:32:47.015Z,94889.00
2022-07-26T06:37:48.988Z,94902.00
2022-07-26T06:42:50.998Z,94887.00
2022-07-26T06:47:53.066Z,94901.00
2022-07-26T06:52:55.146Z,94898.00
2022-07-26T06:57:58.102Z,94891.00
2022-07-26T07:03:00.099Z,94903.00
2022-07-26T07:08:02.087Z,94888.00
2022-07-26T07:13:04.501Z,94911.00
2022-07-26T07:18:06.494Z,94929.00
2022-07-26T07:23:08.565Z,94907.00
2022-07-26T07:28:10.546Z,94915.00
2022-07-26T07:33:21.935Z,94907.00
2022-07-26T07:38:25.158Z,94906.00
2022-07-26T07:43:27.158Z,94865.00
2022-07-26T07:48:29.358Z,94917.00
2022-07-26T07:53:31.363Z,94904.00
2022-07-26T07:58:33.357Z,94906.00
2022-07-26T08:03:38.740Z,94910.00
2022-07-26T08:08:41.453Z,94911.00
2022-07-26T08:13:47.927Z,94904.00
2022-07-26T08:18:57.758Z,94897.00
2022-07-26T08:24:00.377Z,94877.00
2022-07-26T08:29:02.323Z,94891.00
2022-07-26T08:34:04.337Z,94907.00
2022-07-26T08:39:06.773Z,94899.00
2022-07-26T08:44:11.198Z,94895.00
2022-07-26T08:49:15.165Z,94924.00
2022-07-26T08:54:17.272Z,94899.00
2022-07-26T08:59:22.286Z,94940.00
2022-07-26T09:04:43.977Z,94942.00
2022-07-26T09:10:00.313Z,94899.00
2022-07-26T09:15:05.297Z,94899.00
2022-07-26T09:20:35.665Z,94905.00
2022-07-26T09:25:44.530Z,94945.00
2022-07-26T09:30:53.419Z,94939.00
2022-07-26T09:36:07.316Z,94940.00
2022-07-26T09:41:34.284Z,94926.00
2022-07-26T09:46:58.912Z,94947.00
2022-07-26T09:52:00.971Z,94963.00
2022-07-26T09:57:03.583Z,94937.00
2022-07-26T10:02:06.120Z,94915.00
2022-07-26T10:07:10.273Z,94951.00
2022-07-26T10:12:16.155Z,94925.00
2022-07-26T10:17:28.924Z,94947.00
2022-07-26T10:22:45.412Z,94906.00
2022-07-26T10:27:54.414Z,94921.00
2022-07-26T10:33:16.105Z,94861.00
2022-07-26T10:38:29.474Z,94849.00
2022-07-26T10:43:41.447Z,94851.00
2022-07-26T10:49:05.190Z,94933.00
2022-07-26T10:54:10.770Z,94945.00
2022-07-26T10:59:54.830Z,94905.00
2022-07-26T11:05:12.610Z,94876.00
2022-07-26T11:10:15.748Z,94859.00
2022-07-26T11:15:19.349Z,94907.00
2022-07-26T11:20:29.786Z,94909.00
2022-07-26T11:25:32.209Z,94911.00
2022-07-26T11:30:34.771Z,94902.00
2022-07-26T11:35:36.883Z,94904.00
2022-07-26T11:40:44.216Z,94904.00
2022-07-26T11:45:52.754Z,94915.00
2022-07-26T11:51:13.177Z,94929.00
2022-07-26T11:56:21.643Z,94895.00
2022-07-26T12:01:27.499Z,94912.00
2022-07-26T12:06:30.294Z,94907.00
2022-07-26T12:11:41.816Z,94887.00
2022-07-26T12:16:45.863Z,94914.00
2022-07-26T12:21:54.314Z,94920.00
2022-07-26T12:27:22.736Z,94923.00
2022-07-26T12:32:42.532Z,94905.00
2022-07-26T12:37:47.669Z,94887.00
2022-07-26T12:43:01.109Z,94880.00
2022-07-26T12:48:10.890Z,94892.00
2022-07-26T12:53:12.962Z,94905.00
2022-07-26T12:58:15.082Z,94895.00
2022-07-26T13:03:17.053Z,94863.00
2022-07-26T13:08:19.051Z,94877.00
2022-07-26T13:13:21.128Z,94866.00
2022-07-26T13:18:23.106Z,94882.00
2022-07-26T13:23:26.863Z,94871.00
2022-07-26T13:28:29.008Z,94859.00
2022-07-26T13:33:32.823Z,94873.00
2022-07-26T13:38:35.279Z,94882.00
2022-07-26T13:43:37.258Z,94878.00
2022-07-26T13:48:48.034Z,94872.00
2022-07-26T13:54:00.130Z,94854.00
2022-07-26T13:59:02.099Z,94840.00
2022-07-26T14:04:05.807Z,94887.00
2022-07-26T14:09:10.942Z,94891.00
2022-07-26T14:14:14.176Z,94886.00
2022-07-26T14:19:17.339Z,94869.00
2022-07-26T14:24:20.851Z,94856.00
2022-07-26T14:29:23.233Z,94875.00
2022-07-26T14:34:25.538Z,94878.00
2022-07-26T14:39:27.534Z,94870.00
2022-07-26T14:44:29.714Z,94865.00
2022-07-26T14:49:31.702Z,94878.00
2022-07-26T14:54:33.713Z,94876.00
2022-07-26T14:59:35.657Z,94875.00
2022-07-26T15:04:37.686Z,94863.00
2022-07-26T15:09:39.834Z,94865.00
2022-07-26T15:14:45.466Z,94863.00
2022-07-26T15:19:47.455Z,94842.00
2022-07-26T15:24:49.454Z,94853.00
2022-07-26T15:29:51.474Z,94868.00
2022-07-26T15:34:54.048Z,94858.00
2022-07-26T15:39:56.072Z,94887.00
2022-07-26T15:44:58.917Z,94885.00
2022-07-26T15:50:01.198Z,94865.00
2022-07-26T15:55:03.223Z,94869.00
2022-07-26T16:00:11.748Z,94865.00
2022-07-26T16:05:14.502Z,94890.00
2022-07-26T16:10:16.666Z,94871.00
2022-07-26T16:15:19.139Z,94888.00
2022-07-26T16:20:21.248Z,94887.00
2022-07-26T16:25:23.449Z,94875.00
2022-07-26T16:30:25.703Z,94866.00
2022-07-26T16:35:28.009Z,94871.00
2022-07-26T16:40:30.096Z,94876.00
2022-07-26T16:45:32.234Z,94886.00
2022-07-26T16:50:34.897Z,94892.00
2022-07-26T16:55:36.910Z,94873.00
2022-07-26T17:00:38.961Z,94876.00
2022-07-26T17:05:41.134Z,94886.00
2022-07-26T17:10:44.205Z,94892.00
2022-07-26T17:15:46.423Z,94882.00
2022-07-26T17:20:48.585Z,94882.00
2022-07-26T17:25:50.581Z,94864.00
2022-07-26T17:30:52.634Z,94854.00
2022-07-26T17:35:54.965Z,94874.00
2022-07-26T17:40:59.421Z,94892.00
2022-07-26T17:46:01.510Z,94879.00
2022-07-26T17:51:03.633Z,94886.00
2022-07-26T17:56:05.893Z,94895.00
2022-07-26T18:01:07.869Z,94891.00
2022-07-26T18:06:10.482Z,94894.00
2022-07-26T18:11:12.660Z,94904.00
2022-07-26T18:16:14.778Z,94869.00
2022-07-26T18:21:16.825Z,94886.00
2022-07-26T18:26:18.841Z,94911.00
2022-07-26T18:31:20.919Z,94901.00
2022-07-26T18:36:23.146Z,94924.00
2022-07-26T18:41:25.166Z,94914.00
2022-07-26T18:46:27.207Z,94924.00
2022-07-26T18:51:29.460Z,94918.00
2022-07-26T18:56:33.775Z,94921.00
2022-07-26T19:01:35.947Z,94917.00
2022-07-26T19:06:39.909Z,94935.00
2022-07-26T19:11:41.962Z,94937.00
2022-07-26T19:16:50.457Z,94934.00
2022-07-26T19:21:52.447Z,94948.00
2022-07-26T19:26:54.422Z,94964.00
2022-07-26T19:31:56.417Z,94954.00
2022-07-26T19:36:58.777Z,94975.00
2022-07-26T19:42:00.758Z,94973.00
2022-07-26T19:47:02.810Z,94977.00
2022-07-26T19:52:09.695Z,94967.00
2022-07-26T19:57:13.548Z,94966.00
2022-07-26T20:02:15.850Z,94970.00
2022-07-26T20:07:19.677Z,94964.00
2022-07-26T20:12:22.042Z,94958.00
2022-07-26T20:17:25.447Z,94979.00
